Imperial, NE

4:22 AM MDT on March 24, 2017 (GMT -0600)
Imperial Municipal | | Change Station

Elev 3271 ft 40.51 °N, 101.62 °W | Updated 29 minutes ago

Light Rain
Light Rain Mist
49 °F
Feels Like 49 °F
N
30
Wind Variable Wind from NE
Gusts 37 mph

Today
High -- | Low -- °F
--% Chance of Precip.
Yesterday
High -- | Low -- °F
Precip. -- in
Pressure 29.68 in
Visibility 4.0 miles
Clouds Overcast 700 ft
Dew Point 46 °F
Humidity 90%
Rainfall 0.46 in
Snow Depth Not available.
6:42 AM 7:03 PM
Waning Crescent, 16% visible
METAR KIML 240953Z AUTO 04026G32KT 4SM -RA BR OVC007 09/08 A2974 RMK AO2 PK WND 03035/0933 CIG 006V010 SLP051 P0006 T00940078
Pressure 29.68 in
Visibility 4.0 miles
Clouds Overcast 700 ft
Dew Point 46 °F
Humidity 90%
Rainfall 0.46 in
Snow Depth Not available.
6:42 AM 7:03 PM
Waning Crescent, 16% visible
METAR KIML 240953Z AUTO 04026G32KT 4SM -RA BR OVC007 09/08 A2974 RMK AO2 PK WND 03035/0933 CIG 006V010 SLP051 P0006 T00940078

Get Severe Weather Alerts

Thanks for signing up!

Be on the lookout for a verification email in your inbox.

You'll start receiving the daily forecast at 8 AM.

×

10-Day Weather Forecast

Almanac

Astronomy

Mar. 24, 2017 Rise Set
Actual Time
Civil Twilight
Nautical Twilight
Astronomical Twilight
Moon
Length of Visible Light
Length of Day
Tomorrow will be .
, % of the Moon is Illuminated

Today's Extremes

State Highs State Lows

Community

WunderPhotos

Upload Photos

1,962,540 photos uploaded!

WunderBlog® & News

Nearby

Air Quality

  Air Quality AQ Index Pollutant
Not available.

Snow Depth

Station Depth Elevation

Earthquake Activity

City Distance Mag. Time & Date
Minimum magnitude displayed is 2.5.

Earthquake Activity

City Distance Mag. Time & Date
Minimum magnitude displayed is 2.5.

Coastal Water Temperatures

Place Temperature

Stations

Nearby Weather Stations

Station Location Temp. Windchill Dew Point Humidity Wind Precip. Elev Updated Type
                   

Watches & Warnings

There are currently no watches in effect.